sensor_id;sensor_type;location;lat;lon;timestamp;P1;durP1;ratioP1;P2;durP2;ratioP2
39864;SDS011;25538;48.392;9.976;2022-11-20T00:01:44;6.87;;;6.27;;
39864;SDS011;25538;48.392;9.976;2022-11-20T00:04:10;8.00;;;7.30;;
39864;SDS011;25538;48.392;9.976;2022-11-20T00:06:37;7.60;;;6.97;;
39864;SDS011;25538;48.392;9.976;2022-11-20T00:09:03;8.07;;;7.00;;
39864;SDS011;25538;48.392;9.976;2022-11-20T00:11:32;8.10;;;7.40;;
39864;SDS011;25538;48.392;9.976;2022-11-20T00:13:59;8.00;;;7.22;;
39864;SDS011;25538;48.392;9.976;2022-11-20T00:16:27;8.40;;;7.65;;
39864;SDS011;25538;48.392;9.976;2022-11-20T00:18:55;8.15;;;7.45;;
39864;SDS011;25538;48.392;9.976;2022-11-20T00:21:21;8.60;;;7.97;;
39864;SDS011;25538;48.392;9.976;2022-11-20T00:23:49;8.82;;;8.02;;
39864;SDS011;25538;48.392;9.976;2022-11-20T00:26:17;8.05;;;7.25;;
39864;SDS011;25538;48.392;9.976;2022-11-20T00:28:48;7.45;;;6.85;;
39864;SDS011;25538;48.392;9.976;2022-11-20T00:31:16;8.15;;;7.35;;
39864;SDS011;25538;48.392;9.976;2022-11-20T00:33:42;8.43;;;7.13;;
39864;SDS011;25538;48.392;9.976;2022-11-20T00:36:10;9.48;;;8.57;;
39864;SDS011;25538;48.392;9.976;2022-11-20T00:38:38;8.80;;;7.90;;
39864;SDS011;25538;48.392;9.976;2022-11-20T00:41:08;8.43;;;7.63;;
39864;SDS011;25538;48.392;9.976;2022-11-20T00:43:36;7.97;;;7.30;;
39864;SDS011;25538;48.392;9.976;2022-11-20T00:46:07;7.47;;;6.80;;
39864;SDS011;25538;48.392;9.976;2022-11-20T00:48:39;8.50;;;7.68;;
39864;SDS011;25538;48.392;9.976;2022-11-20T00:51:06;9.20;;;8.30;;
39864;SDS011;25538;48.392;9.976;2022-11-20T00:53:33;9.10;;;8.20;;
39864;SDS011;25538;48.392;9.976;2022-11-20T00:56:03;7.70;;;7.00;;
39864;SDS011;25538;48.392;9.976;2022-11-20T00:58:32;9.95;;;8.95;;
39864;SDS011;25538;48.392;9.976;2022-11-20T01:01:00;8.75;;;7.85;;
39864;SDS011;25538;48.392;9.976;2022-11-20T01:03:27;8.45;;;7.72;;
39864;SDS011;25538;48.392;9.976;2022-11-20T01:05:59;8.63;;;7.78;;
39864;SDS011;25538;48.392;9.976;2022-11-20T01:08:29;7.68;;;7.10;;
39864;SDS011;25538;48.392;9.976;2022-11-20T01:11:03;7.57;;;6.97;;
39864;SDS011;25538;48.392;9.976;2022-11-20T01:13:33;9.50;;;8.60;;
39864;SDS011;25538;48.392;9.976;2022-11-20T01:18:35;7.97;;;7.28;;
39864;SDS011;25538;48.392;9.976;2022-11-20T01:21:06;8.82;;;7.57;;
39864;SDS011;25538;48.392;9.976;2022-11-20T01:23:38;7.72;;;7.07;;
39864;SDS011;25538;48.392;9.976;2022-11-20T01:26:07;7.53;;;6.90;;
39864;SDS011;25538;48.392;9.976;2022-11-20T01:28:35;8.13;;;7.43;;
39864;SDS011;25538;48.392;9.976;2022-11-20T01:31:02;7.65;;;6.97;;
39864;SDS011;25538;48.392;9.976;2022-11-20T01:33:40;8.35;;;7.55;;
39864;SDS011;25538;48.392;9.976;2022-11-20T01:36:07;8.40;;;7.60;;
39864;SDS011;25538;48.392;9.976;2022-11-20T01:38:33;9.65;;;8.65;;
39864;SDS011;25538;48.392;9.976;2022-11-20T01:40:59;8.15;;;7.45;;
39864;SDS011;25538;48.392;9.976;2022-11-20T01:43:26;7.65;;;6.97;;
39864;SDS011;25538;48.392;9.976;2022-11-20T01:48:30;8.55;;;7.75;;
39864;SDS011;25538;48.392;9.976;2022-11-20T01:51:04;8.15;;;7.35;;
39864;SDS011;25538;48.392;9.976;2022-11-20T01:53:41;9.38;;;7.97;;
39864;SDS011;25538;48.392;9.976;2022-11-20T01:56:08;10.48;;;8.45;;
39864;SDS011;25538;48.392;9.976;2022-11-20T01:58:38;12.25;;;8.18;;
39864;SDS011;25538;48.392;9.976;2022-11-20T02:01:09;8.55;;;7.43;;
39864;SDS011;25538;48.392;9.976;2022-11-20T02:03:35;7.65;;;6.85;;
39864;SDS011;25538;48.392;9.976;2022-11-20T02:08:34;9.63;;;8.82;;
39864;SDS011;25538;48.392;9.976;2022-11-20T02:11:01;8.70;;;7.80;;
39864;SDS011;25538;48.392;9.976;2022-11-20T02:13:27;9.30;;;7.27;;
39864;SDS011;25538;48.392;9.976;2022-11-20T02:16:09;9.00;;;7.97;;
39864;SDS011;25538;48.392;9.976;2022-11-20T02:18:56;7.95;;;7.32;;
39864;SDS011;25538;48.392;9.976;2022-11-20T02:21:36;8.20;;;7.28;;
39864;SDS011;25538;48.392;9.976;2022-11-20T02:24:23;7.72;;;7.13;;
39864;SDS011;25538;48.392;9.976;2022-11-20T02:29:19;8.73;;;7.60;;
39864;SDS011;25538;48.392;9.976;2022-11-20T02:31:52;8.55;;;7.85;;
39864;SDS011;25538;48.392;9.976;2022-11-20T02:34:20;9.80;;;8.85;;
39864;SDS011;25538;48.392;9.976;2022-11-20T02:36:46;9.23;;;7.63;;
39864;SDS011;25538;48.392;9.976;2022-11-20T02:39:13;9.13;;;8.23;;
39864;SDS011;25538;48.392;9.976;2022-11-20T02:41:42;8.98;;;8.18;;
39864;SDS011;25538;48.392;9.976;2022-11-20T02:44:08;8.18;;;7.38;;
39864;SDS011;25538;48.392;9.976;2022-11-20T02:46:34;12.15;;;7.78;;
39864;SDS011;25538;48.392;9.976;2022-11-20T02:49:01;10.90;;;8.33;;
39864;SDS011;25538;48.392;9.976;2022-11-20T02:51:28;9.18;;;8.32;;
39864;SDS011;25538;48.392;9.976;2022-11-20T02:53:54;7.75;;;7.05;;
39864;SDS011;25538;48.392;9.976;2022-11-20T02:56:20;8.37;;;7.57;;
39864;SDS011;25538;48.392;9.976;2022-11-20T02:58:45;8.63;;;7.73;;
39864;SDS011;25538;48.392;9.976;2022-11-20T03:01:12;8.82;;;7.95;;
39864;SDS011;25538;48.392;9.976;2022-11-20T03:03:38;7.63;;;6.90;;
39864;SDS011;25538;48.392;9.976;2022-11-20T03:06:04;8.50;;;7.83;;
39864;SDS011;25538;48.392;9.976;2022-11-20T03:08:30;9.18;;;8.23;;
39864;SDS011;25538;48.392;9.976;2022-11-20T03:10:56;9.37;;;8.43;;
39864;SDS011;25538;48.392;9.976;2022-11-20T03:13:22;8.65;;;7.88;;
39864;SDS011;25538;48.392;9.976;2022-11-20T03:15:48;8.47;;;7.40;;
39864;SDS011;25538;48.392;9.976;2022-11-20T03:18:13;7.70;;;7.00;;
39864;SDS011;25538;48.392;9.976;2022-11-20T03:20:40;9.07;;;7.53;;
39864;SDS011;25538;48.392;9.976;2022-11-20T03:23:06;9.23;;;7.90;;
39864;SDS011;25538;48.392;9.976;2022-11-20T03:25:32;6.10;;;5.60;;
39864;SDS011;25538;48.392;9.976;2022-11-20T03:27:58;6.40;;;5.80;;
39864;SDS011;25538;48.392;9.976;2022-11-20T03:30:23;7.73;;;6.93;;
39864;SDS011;25538;48.392;9.976;2022-11-20T03:32:52;6.67;;;6.07;;
39864;SDS011;25538;48.392;9.976;2022-11-20T03:35:19;7.60;;;7.00;;
39864;SDS011;25538;48.392;9.976;2022-11-20T03:37:45;7.68;;;5.97;;
39864;SDS011;25538;48.392;9.976;2022-11-20T03:40:11;6.50;;;5.90;;
39864;SDS011;25538;48.392;9.976;2022-11-20T03:42:43;6.22;;;5.72;;
39864;SDS011;25538;48.392;9.976;2022-11-20T03:45:12;7.03;;;6.35;;
39864;SDS011;25538;48.392;9.976;2022-11-20T03:47:39;7.38;;;6.15;;
39864;SDS011;25538;48.392;9.976;2022-11-20T03:50:05;5.77;;;5.13;;
39864;SDS011;25538;48.392;9.976;2022-11-20T03:52:31;7.15;;;6.45;;
39864;SDS011;25538;48.392;9.976;2022-11-20T03:54:57;6.40;;;5.80;;
39864;SDS011;25538;48.392;9.976;2022-11-20T03:57:23;6.57;;;5.97;;
39864;SDS011;25538;48.392;9.976;2022-11-20T03:59:49;7.27;;;6.50;;
39864;SDS011;25538;48.392;9.976;2022-11-20T04:02:15;6.90;;;6.20;;
39864;SDS011;25538;48.392;9.976;2022-11-20T04:04:41;6.82;;;5.60;;
39864;SDS011;25538;48.392;9.976;2022-11-20T04:07:07;5.97;;;5.50;;
39864;SDS011;25538;48.392;9.976;2022-11-20T04:09:33;7.10;;;6.40;;
39864;SDS011;25538;48.392;9.976;2022-11-20T04:11:58;6.77;;;6.17;;
39864;SDS011;25538;48.392;9.976;2022-11-20T04:14:24;7.30;;;6.60;;
39864;SDS011;25538;48.392;9.976;2022-11-20T04:16:50;7.93;;;7.23;;
39864;SDS011;25538;48.392;9.976;2022-11-20T04:19:16;7.43;;;6.73;;
39864;SDS011;25538;48.392;9.976;2022-11-20T04:21:43;9.63;;;8.05;;
39864;SDS011;25538;48.392;9.976;2022-11-20T04:24:09;7.32;;;6.63;;
39864;SDS011;25538;48.392;9.976;2022-11-20T04:26:38;7.30;;;6.60;;
39864;SDS011;25538;48.392;9.976;2022-11-20T04:29:04;7.47;;;6.78;;
39864;SDS011;25538;48.392;9.976;2022-11-20T04:31:32;8.27;;;7.47;;
39864;SDS011;25538;48.392;9.976;2022-11-20T04:34:00;7.50;;;6.80;;
39864;SDS011;25538;48.392;9.976;2022-11-20T04:36:29;8.45;;;7.20;;
39864;SDS011;25538;48.392;9.976;2022-11-20T04:38:56;6.53;;;5.95;;
39864;SDS011;25538;48.392;9.976;2022-11-20T04:41:28;6.95;;;6.25;;
39864;SDS011;25538;48.392;9.976;2022-11-20T04:43:57;7.80;;;7.00;;
39864;SDS011;25538;48.392;9.976;2022-11-20T04:46:27;8.15;;;7.45;;
39864;SDS011;25538;48.392;9.976;2022-11-20T04:48:53;7.55;;;6.85;;
39864;SDS011;25538;48.392;9.976;2022-11-20T04:51:19;7.80;;;7.20;;
39864;SDS011;25538;48.392;9.976;2022-11-20T04:53:45;7.23;;;6.63;;
39864;SDS011;25538;48.392;9.976;2022-11-20T04:56:11;7.63;;;6.90;;
39864;SDS011;25538;48.392;9.976;2022-11-20T04:58:38;7.35;;;6.70;;
39864;SDS011;25538;48.392;9.976;2022-11-20T05:01:15;7.38;;;6.75;;
39864;SDS011;25538;48.392;9.976;2022-11-20T05:03:43;7.63;;;6.93;;
39864;SDS011;25538;48.392;9.976;2022-11-20T05:06:10;8.93;;;8.13;;
39864;SDS011;25538;48.392;9.976;2022-11-20T05:08:38;7.78;;;7.18;;
39864;SDS011;25538;48.392;9.976;2022-11-20T05:11:08;7.28;;;6.57;;
39864;SDS011;25538;48.392;9.976;2022-11-20T05:13:42;8.05;;;7.25;;
39864;SDS011;25538;48.392;9.976;2022-11-20T05:16:09;7.70;;;7.00;;
39864;SDS011;25538;48.392;9.976;2022-11-20T05:18:36;7.13;;;6.53;;
39864;SDS011;25538;48.392;9.976;2022-11-20T05:21:03;8.15;;;7.35;;
39864;SDS011;25538;48.392;9.976;2022-11-20T05:23:30;7.75;;;7.05;;
39864;SDS011;25538;48.392;9.976;2022-11-20T05:25:57;7.72;;;7.03;;
39864;SDS011;25538;48.392;9.976;2022-11-20T05:28:23;8.35;;;7.63;;
39864;SDS011;25538;48.392;9.976;2022-11-20T05:30:50;8.70;;;7.80;;
39864;SDS011;25538;48.392;9.976;2022-11-20T05:33:17;8.33;;;7.63;;
39864;SDS011;25538;48.392;9.976;2022-11-20T05:35:43;8.77;;;7.80;;
39864;SDS011;25538;48.392;9.976;2022-11-20T05:38:10;8.82;;;8.02;;
39864;SDS011;25538;48.392;9.976;2022-11-20T05:40:36;10.05;;;9.05;;
39864;SDS011;25538;48.392;9.976;2022-11-20T05:43:02;9.73;;;8.93;;
39864;SDS011;25538;48.392;9.976;2022-11-20T05:45:28;8.80;;;8.00;;
39864;SDS011;25538;48.392;9.976;2022-11-20T05:47:57;9.50;;;8.60;;
39864;SDS011;25538;48.392;9.976;2022-11-20T05:50:25;10.85;;;9.80;;
39864;SDS011;25538;48.392;9.976;2022-11-20T05:52:52;9.18;;;8.38;;
39864;SDS011;25538;48.392;9.976;2022-11-20T05:55:18;10.30;;;9.30;;
39864;SDS011;25538;48.392;9.976;2022-11-20T05:57:43;10.40;;;9.00;;
39864;SDS011;25538;48.392;9.976;2022-11-20T06:00:09;10.30;;;8.27;;
39864;SDS011;25538;48.392;9.976;2022-11-20T06:02:36;10.98;;;9.80;;
39864;SDS011;25538;48.392;9.976;2022-11-20T06:05:02;9.50;;;8.50;;
39864;SDS011;25538;48.392;9.976;2022-11-20T06:07:28;11.55;;;10.40;;
39864;SDS011;25538;48.392;9.976;2022-11-20T06:09:54;10.83;;;9.83;;
39864;SDS011;25538;48.392;9.976;2022-11-20T06:12:19;11.27;;;10.17;;
39864;SDS011;25538;48.392;9.976;2022-11-20T06:14:45;10.67;;;9.67;;
39864;SDS011;25538;48.392;9.976;2022-11-20T06:17:11;11.70;;;10.50;;
39864;SDS011;25538;48.392;9.976;2022-11-20T06:19:37;11.97;;;10.77;;
39864;SDS011;25538;48.392;9.976;2022-11-20T06:22:03;12.27;;;11.07;;
39864;SDS011;25538;48.392;9.976;2022-11-20T06:24:29;11.90;;;10.67;;
39864;SDS011;25538;48.392;9.976;2022-11-20T06:26:54;11.10;;;10.00;;
39864;SDS011;25538;48.392;9.976;2022-11-20T06:29:20;11.17;;;10.20;;
39864;SDS011;25538;48.392;9.976;2022-11-20T06:31:46;11.97;;;9.80;;
39864;SDS011;25538;48.392;9.976;2022-11-20T06:34:12;10.83;;;9.80;;
39864;SDS011;25538;48.392;9.976;2022-11-20T06:36:38;11.10;;;9.63;;
39864;SDS011;25538;48.392;9.976;2022-11-20T06:39:04;11.20;;;10.00;;
39864;SDS011;25538;48.392;9.976;2022-11-20T06:41:30;11.33;;;10.13;;
39864;SDS011;25538;48.392;9.976;2022-11-20T06:43:56;11.27;;;10.07;;
39864;SDS011;25538;48.392;9.976;2022-11-20T06:46:21;11.37;;;10.27;;
39864;SDS011;25538;48.392;9.976;2022-11-20T06:48:48;10.55;;;9.45;;
39864;SDS011;25538;48.392;9.976;2022-11-20T06:51:14;10.93;;;9.90;;
39864;SDS011;25538;48.392;9.976;2022-11-20T06:53:40;11.20;;;10.07;;
39864;SDS011;25538;48.392;9.976;2022-11-20T06:56:06;10.82;;;9.70;;
39864;SDS011;25538;48.392;9.976;2022-11-20T06:58:33;10.60;;;9.40;;
39864;SDS011;25538;48.392;9.976;2022-11-20T07:01:01;12.55;;;11.40;;
39864;SDS011;25538;48.392;9.976;2022-11-20T07:03:28;10.90;;;9.80;;
39864;SDS011;25538;48.392;9.976;2022-11-20T07:05:57;11.07;;;9.87;;
39864;SDS011;25538;48.392;9.976;2022-11-20T07:08:25;12.27;;;11.18;;
39864;SDS011;25538;48.392;9.976;2022-11-20T07:10:51;12.45;;;11.32;;
39864;SDS011;25538;48.392;9.976;2022-11-20T07:13:17;10.65;;;9.65;;
39864;SDS011;25538;48.392;9.976;2022-11-20T07:15:43;11.00;;;9.90;;
39864;SDS011;25538;48.392;9.976;2022-11-20T07:18:09;9.87;;;9.03;;
39864;SDS011;25538;48.392;9.976;2022-11-20T07:20:35;10.17;;;9.20;;
39864;SDS011;25538;48.392;9.976;2022-11-20T07:23:00;10.90;;;10.00;;
39864;SDS011;25538;48.392;9.976;2022-11-20T07:25:27;10.87;;;9.80;;
39864;SDS011;25538;48.392;9.976;2022-11-20T07:27:57;11.20;;;10.20;;
39864;SDS011;25538;48.392;9.976;2022-11-20T07:30:23;10.68;;;9.65;;
39864;SDS011;25538;48.392;9.976;2022-11-20T07:32:50;11.10;;;9.30;;
39864;SDS011;25538;48.392;9.976;2022-11-20T07:35:17;10.63;;;9.52;;
39864;SDS011;25538;48.392;9.976;2022-11-20T07:37:43;9.63;;;8.82;;
39864;SDS011;25538;48.392;9.976;2022-11-20T07:40:11;9.70;;;8.90;;
39864;SDS011;25538;48.392;9.976;2022-11-20T07:42:38;10.35;;;9.25;;
39864;SDS011;25538;48.392;9.976;2022-11-20T07:45:04;10.37;;;9.37;;
39864;SDS011;25538;48.392;9.976;2022-11-20T07:47:36;11.18;;;10.00;;
39864;SDS011;25538;48.392;9.976;2022-11-20T07:50:02;11.32;;;10.20;;
39864;SDS011;25538;48.392;9.976;2022-11-20T07:52:28;9.18;;;8.27;;
39864;SDS011;25538;48.392;9.976;2022-11-20T07:54:54;9.13;;;8.27;;
39864;SDS011;25538;48.392;9.976;2022-11-20T07:57:20;9.30;;;8.50;;
39864;SDS011;25538;48.392;9.976;2022-11-20T07:59:46;8.33;;;7.57;;
39864;SDS011;25538;48.392;9.976;2022-11-20T08:02:12;8.87;;;8.17;;
39864;SDS011;25538;48.392;9.976;2022-11-20T08:04:38;9.68;;;8.85;;
39864;SDS011;25538;48.392;9.976;2022-11-20T08:07:04;8.70;;;7.80;;
39864;SDS011;25538;48.392;9.976;2022-11-20T08:09:30;9.53;;;8.53;;
39864;SDS011;25538;48.392;9.976;2022-11-20T08:11:56;9.33;;;8.43;;
39864;SDS011;25538;48.392;9.976;2022-11-20T08:14:40;9.98;;;7.97;;
39864;SDS011;25538;48.392;9.976;2022-11-20T08:17:06;10.37;;;9.33;;
39864;SDS011;25538;48.392;9.976;2022-11-20T08:19:32;12.53;;;8.63;;
39864;SDS011;25538;48.392;9.976;2022-11-20T08:21:58;9.70;;;8.83;;
39864;SDS011;25538;48.392;9.976;2022-11-20T08:24:23;9.83;;;9.03;;
39864;SDS011;25538;48.392;9.976;2022-11-20T08:26:51;10.10;;;9.10;;
39864;SDS011;25538;48.392;9.976;2022-11-20T08:29:17;10.55;;;9.55;;
39864;SDS011;25538;48.392;9.976;2022-11-20T08:31:43;10.90;;;9.80;;
39864;SDS011;25538;48.392;9.976;2022-11-20T08:34:09;9.23;;;8.33;;
39864;SDS011;25538;48.392;9.976;2022-11-20T08:36:35;14.10;;;9.57;;
39864;SDS011;25538;48.392;9.976;2022-11-20T08:39:02;10.65;;;9.63;;
39864;SDS011;25538;48.392;9.976;2022-11-20T08:41:28;9.57;;;8.75;;
39864;SDS011;25538;48.392;9.976;2022-11-20T08:43:59;9.35;;;8.45;;
39864;SDS011;25538;48.392;9.976;2022-11-20T08:46:28;9.45;;;8.65;;
39864;SDS011;25538;48.392;9.976;2022-11-20T08:49:05;9.00;;;8.20;;
39864;SDS011;25538;48.392;9.976;2022-11-20T08:51:34;9.63;;;8.73;;
39864;SDS011;25538;48.392;9.976;2022-11-20T08:54:01;8.68;;;7.88;;
39864;SDS011;25538;48.392;9.976;2022-11-20T08:56:27;8.73;;;8.00;;
39864;SDS011;25538;48.392;9.976;2022-11-20T08:58:53;9.90;;;8.90;;
39864;SDS011;25538;48.392;9.976;2022-11-20T09:01:20;9.13;;;8.00;;
39864;SDS011;25538;48.392;9.976;2022-11-20T09:03:47;8.90;;;7.88;;
39864;SDS011;25538;48.392;9.976;2022-11-20T09:06:13;8.23;;;7.63;;
39864;SDS011;25538;48.392;9.976;2022-11-20T09:08:39;8.07;;;7.38;;
39864;SDS011;25538;48.392;9.976;2022-11-20T09:11:05;6.97;;;6.40;;
39864;SDS011;25538;48.392;9.976;2022-11-20T09:13:34;6.25;;;5.75;;
39864;SDS011;25538;48.392;9.976;2022-11-20T09:16:05;6.45;;;5.90;;
39864;SDS011;25538;48.392;9.976;2022-11-20T09:18:32;6.30;;;5.75;;
39864;SDS011;25538;48.392;9.976;2022-11-20T09:21:02;5.55;;;5.10;;
39864;SDS011;25538;48.392;9.976;2022-11-20T09:23:33;6.18;;;5.60;;
39864;SDS011;25538;48.392;9.976;2022-11-20T09:26:02;5.18;;;4.78;;
39864;SDS011;25538;48.392;9.976;2022-11-20T09:28:29;6.60;;;5.85;;
39864;SDS011;25538;48.392;9.976;2022-11-20T09:30:55;6.22;;;5.65;;
39864;SDS011;25538;48.392;9.976;2022-11-20T09:33:21;5.73;;;5.33;;
39864;SDS011;25538;48.392;9.976;2022-11-20T09:35:47;6.37;;;5.80;;
39864;SDS011;25538;48.392;9.976;2022-11-20T09:38:13;4.90;;;4.50;;
39864;SDS011;25538;48.392;9.976;2022-11-20T09:41:00;4.90;;;4.60;;
39864;SDS011;25538;48.392;9.976;2022-11-20T09:46:22;5.88;;;5.38;;
39864;SDS011;25538;48.392;9.976;2022-11-20T09:54:51;4.70;;;4.35;;
39864;SDS011;25538;48.392;9.976;2022-11-20T09:57:21;5.28;;;4.78;;
39864;SDS011;25538;48.392;9.976;2022-11-20T09:59:53;4.93;;;4.53;;
39864;SDS011;25538;48.392;9.976;2022-11-20T10:05:24;4.10;;;3.78;;
39864;SDS011;25538;48.392;9.976;2022-11-20T10:08:31;4.03;;;3.72;;
39864;SDS011;25538;48.392;9.976;2022-11-20T10:11:05;4.20;;;3.80;;
39864;SDS011;25538;48.392;9.976;2022-11-20T10:29:34;3.38;;;3.17;;
39864;SDS011;25538;48.392;9.976;2022-11-20T10:32:22;2.90;;;2.70;;
39864;SDS011;25538;48.392;9.976;2022-11-20T10:37:44;2.72;;;2.60;;
39864;SDS011;25538;48.392;9.976;2022-11-20T10:40:20;3.60;;;3.30;;
39864;SDS011;25538;48.392;9.976;2022-11-20T10:42:54;4.20;;;3.78;;
39864;SDS011;25538;48.392;9.976;2022-11-20T10:54:40;4.30;;;3.63;;
39864;SDS011;25538;48.392;9.976;2022-11-20T10:56:53;4.30;;;2.92;;
39864;SDS011;25538;48.392;9.976;2022-11-20T11:01:50;3.78;;;3.58;;
39864;SDS011;25538;48.392;9.976;2022-11-20T11:07:10;4.28;;;3.85;;
39864;SDS011;25538;48.392;9.976;2022-11-20T11:10:05;3.80;;;3.60;;
39864;SDS011;25538;48.392;9.976;2022-11-20T11:12:44;3.60;;;3.30;;
39864;SDS011;25538;48.392;9.976;2022-11-20T11:15:14;3.60;;;3.25;;
39864;SDS011;25538;48.392;9.976;2022-11-20T11:17:51;4.80;;;4.32;;
39864;SDS011;25538;48.392;9.976;2022-11-20T11:20:18;4.00;;;3.60;;
39864;SDS011;25538;48.392;9.976;2022-11-20T11:22:47;3.22;;;3.03;;
39864;SDS011;25538;48.392;9.976;2022-11-20T11:25:19;4.10;;;3.80;;
39864;SDS011;25538;48.392;9.976;2022-11-20T11:27:55;4.10;;;3.70;;
39864;SDS011;25538;48.392;9.976;2022-11-20T11:30:29;2.90;;;2.70;;
39864;SDS011;25538;48.392;9.976;2022-11-20T11:33:08;3.20;;;3.00;;
39864;SDS011;25538;48.392;9.976;2022-11-20T11:36:19;3.30;;;3.10;;
39864;SDS011;25538;48.392;9.976;2022-11-20T11:38:28;3.17;;;2.88;;
39864;SDS011;25538;48.392;9.976;2022-11-20T11:41:00;3.55;;;3.35;;
39864;SDS011;25538;48.392;9.976;2022-11-20T11:43:28;3.30;;;3.10;;
39864;SDS011;25538;48.392;9.976;2022-11-20T11:46:27;3.67;;;3.38;;
39864;SDS011;25538;48.392;9.976;2022-11-20T11:51:21;3.80;;;3.30;;
39864;SDS011;25538;48.392;9.976;2022-11-20T11:53:48;3.70;;;3.40;;
39864;SDS011;25538;48.392;9.976;2022-11-20T11:56:14;4.55;;;3.80;;
39864;SDS011;25538;48.392;9.976;2022-11-20T12:03:38;3.72;;;3.30;;
39864;SDS011;25538;48.392;9.976;2022-11-20T12:06:16;3.42;;;3.22;;
39864;SDS011;25538;48.392;9.976;2022-11-20T12:08:53;3.25;;;3.05;;
39864;SDS011;25538;48.392;9.976;2022-11-20T12:16:52;3.70;;;3.30;;
39864;SDS011;25538;48.392;9.976;2022-11-20T12:19:19;2.95;;;2.75;;
39864;SDS011;25538;48.392;9.976;2022-11-20T12:21:48;3.38;;;3.17;;
39864;SDS011;25538;48.392;9.976;2022-11-20T12:30:15;2.97;;;2.78;;
39864;SDS011;25538;48.392;9.976;2022-11-20T12:47:24;4.45;;;3.15;;
39864;SDS011;25538;48.392;9.976;2022-11-20T12:53:06;2.90;;;2.70;;
39864;SDS011;25538;48.392;9.976;2022-11-20T12:55:44;2.88;;;2.60;;
39864;SDS011;25538;48.392;9.976;2022-11-20T12:58:18;3.30;;;3.03;;
39864;SDS011;25538;48.392;9.976;2022-11-20T13:06:44;2.47;;;2.17;;
39864;SDS011;25538;48.392;9.976;2022-11-20T13:09:11;2.40;;;1.55;;
39864;SDS011;25538;48.392;9.976;2022-11-20T13:11:45;1.90;;;1.80;;
39864;SDS011;25538;48.392;9.976;2022-11-20T13:14:25;1.95;;;1.75;;
39864;SDS011;25538;48.392;9.976;2022-11-20T13:17:05;1.40;;;1.30;;
39864;SDS011;25538;48.392;9.976;2022-11-20T13:19:32;2.35;;;1.60;;
39864;SDS011;25538;48.392;9.976;2022-11-20T13:21:59;3.25;;;2.38;;
39864;SDS011;25538;48.392;9.976;2022-11-20T13:24:26;2.25;;;2.05;;
39864;SDS011;25538;48.392;9.976;2022-11-20T13:29:37;1.95;;;1.85;;
39864;SDS011;25538;48.392;9.976;2022-11-20T13:34:38;1.67;;;1.58;;
39864;SDS011;25538;48.392;9.976;2022-11-20T13:37:04;1.40;;;1.40;;
39864;SDS011;25538;48.392;9.976;2022-11-20T13:39:32;2.22;;;1.88;;
39864;SDS011;25538;48.392;9.976;2022-11-20T13:44:53;2.05;;;1.70;;
39864;SDS011;25538;48.392;9.976;2022-11-20T13:47:21;1.67;;;1.58;;
39864;SDS011;25538;48.392;9.976;2022-11-20T13:49:49;1.48;;;1.30;;
39864;SDS011;25538;48.392;9.976;2022-11-20T13:55:11;2.95;;;1.50;;
39864;SDS011;25538;48.392;9.976;2022-11-20T13:57:59;1.48;;;1.38;;
39864;SDS011;25538;48.392;9.976;2022-11-20T14:00:51;2.75;;;2.40;;
39864;SDS011;25538;48.392;9.976;2022-11-20T14:03:24;1.58;;;1.48;;
39864;SDS011;25538;48.392;9.976;2022-11-20T14:05:51;1.65;;;1.30;;
39864;SDS011;25538;48.392;9.976;2022-11-20T14:08:27;1.70;;;1.60;;
39864;SDS011;25538;48.392;9.976;2022-11-20T14:11:14;1.63;;;1.52;;
39864;SDS011;25538;48.392;9.976;2022-11-20T14:13:58;2.10;;;1.33;;
39864;SDS011;25538;48.392;9.976;2022-11-20T14:16:25;2.03;;;1.40;;
39864;SDS011;25538;48.392;9.976;2022-11-20T14:18:53;0.95;;;0.95;;
39864;SDS011;25538;48.392;9.976;2022-11-20T14:21:27;1.40;;;1.30;;
39864;SDS011;25538;48.392;9.976;2022-11-20T14:24:09;2.30;;;1.75;;
39864;SDS011;25538;48.392;9.976;2022-11-20T14:26:37;3.28;;;2.20;;
39864;SDS011;25538;48.392;9.976;2022-11-20T14:29:13;1.65;;;1.55;;
39864;SDS011;25538;48.392;9.976;2022-11-20T14:31:51;1.70;;;1.60;;
39864;SDS011;25538;48.392;9.976;2022-11-20T14:34:20;2.20;;;1.90;;
39864;SDS011;25538;48.392;9.976;2022-11-20T14:36:48;2.25;;;2.00;;
39864;SDS011;25538;48.392;9.976;2022-11-20T14:39:37;1.90;;;1.70;;
39864;SDS011;25538;48.392;9.976;2022-11-20T14:42:16;1.45;;;1.15;;
39864;SDS011;25538;48.392;9.976;2022-11-20T14:44:44;1.40;;;1.30;;
39864;SDS011;25538;48.392;9.976;2022-11-20T14:47:11;1.88;;;1.52;;
39864;SDS011;25538;48.392;9.976;2022-11-20T14:49:40;1.30;;;1.27;;
39864;SDS011;25538;48.392;9.976;2022-11-20T14:52:17;3.33;;;2.00;;
39864;SDS011;25538;48.392;9.976;2022-11-20T14:57:53;1.58;;;1.48;;
39864;SDS011;25538;48.392;9.976;2022-11-20T15:02:31;1.40;;;1.30;;
39864;SDS011;25538;48.392;9.976;2022-11-20T15:04:58;1.33;;;1.23;;
39864;SDS011;25538;48.392;9.976;2022-11-20T15:07:32;1.63;;;1.52;;
39864;SDS011;25538;48.392;9.976;2022-11-20T15:10:04;3.88;;;1.60;;
39864;SDS011;25538;48.392;9.976;2022-11-20T15:12:57;1.50;;;1.40;;
39864;SDS011;25538;48.392;9.976;2022-11-20T15:15:31;1.80;;;1.40;;
39864;SDS011;25538;48.392;9.976;2022-11-20T15:18:01;2.90;;;2.35;;
39864;SDS011;25538;48.392;9.976;2022-11-20T15:20:30;1.77;;;1.65;;
39864;SDS011;25538;48.392;9.976;2022-11-20T15:22:57;2.25;;;2.05;;
39864;SDS011;25538;48.392;9.976;2022-11-20T15:25:23;3.17;;;2.97;;
39864;SDS011;25538;48.392;9.976;2022-11-20T15:27:54;4.15;;;3.00;;
39864;SDS011;25538;48.392;9.976;2022-11-20T15:30:22;3.10;;;2.25;;
39864;SDS011;25538;48.392;9.976;2022-11-20T15:32:49;3.38;;;3.17;;
39864;SDS011;25538;48.392;9.976;2022-11-20T15:35:15;1.90;;;1.80;;
39864;SDS011;25538;48.392;9.976;2022-11-20T15:37:41;2.57;;;2.37;;
39864;SDS011;25538;48.392;9.976;2022-11-20T15:40:07;3.83;;;3.28;;
39864;SDS011;25538;48.392;9.976;2022-11-20T15:42:34;2.80;;;2.60;;
39864;SDS011;25538;48.392;9.976;2022-11-20T15:45:00;4.28;;;3.35;;
39864;SDS011;25538;48.392;9.976;2022-11-20T15:47:27;3.67;;;2.42;;
39864;SDS011;25538;48.392;9.976;2022-11-20T15:49:58;3.65;;;3.38;;
39864;SDS011;25538;48.392;9.976;2022-11-20T15:52:25;2.90;;;2.70;;
39864;SDS011;25538;48.392;9.976;2022-11-20T15:54:51;3.50;;;3.20;;
39864;SDS011;25538;48.392;9.976;2022-11-20T15:57:17;6.82;;;4.20;;
39864;SDS011;25538;48.392;9.976;2022-11-20T15:59:43;4.53;;;3.92;;
39864;SDS011;25538;48.392;9.976;2022-11-20T16:02:12;3.78;;;3.47;;
39864;SDS011;25538;48.392;9.976;2022-11-20T16:04:39;3.45;;;3.15;;
39864;SDS011;25538;48.392;9.976;2022-11-20T16:07:05;3.47;;;3.17;;
39864;SDS011;25538;48.392;9.976;2022-11-20T16:09:31;3.45;;;3.05;;
39864;SDS011;25538;48.392;9.976;2022-11-20T16:11:57;3.65;;;3.10;;
39864;SDS011;25538;48.392;9.976;2022-11-20T16:14:27;3.67;;;3.25;;
39864;SDS011;25538;48.392;9.976;2022-11-20T16:17:12;2.65;;;2.45;;
39864;SDS011;25538;48.392;9.976;2022-11-20T16:19:38;4.05;;;2.50;;
39864;SDS011;25538;48.392;9.976;2022-11-20T16:22:04;3.37;;;3.00;;
39864;SDS011;25538;48.392;9.976;2022-11-20T16:24:30;3.00;;;2.80;;
39864;SDS011;25538;48.392;9.976;2022-11-20T16:26:56;3.37;;;3.07;;
39864;SDS011;25538;48.392;9.976;2022-11-20T16:29:22;3.77;;;3.47;;
39864;SDS011;25538;48.392;9.976;2022-11-20T16:31:48;4.40;;;3.97;;
39864;SDS011;25538;48.392;9.976;2022-11-20T16:34:15;4.70;;;4.30;;
39864;SDS011;25538;48.392;9.976;2022-11-20T16:36:42;4.55;;;4.18;;
39864;SDS011;25538;48.392;9.976;2022-11-20T16:39:08;4.80;;;4.40;;
39864;SDS011;25538;48.392;9.976;2022-11-20T16:41:35;4.43;;;4.03;;
39864;SDS011;25538;48.392;9.976;2022-11-20T16:44:02;3.55;;;3.30;;
39864;SDS011;25538;48.392;9.976;2022-11-20T16:46:32;4.47;;;4.10;;
39864;SDS011;25538;48.392;9.976;2022-11-20T16:48:59;3.70;;;3.33;;
39864;SDS011;25538;48.392;9.976;2022-11-20T16:51:27;4.65;;;3.80;;